Time;durP1;ratioP1;P1;durP2;ratioP2;P2;SDS_P1;SDS_P2;PMS_P1;PMS_P2;Temp;Humidity;BMP_temperature;BMP_pressure;BME280_temperature;BME280_humidity;BME280_pressure;Samples;Min_cycle;Max_cycle;Signal;HPM_P1;HPM_P2
2022/07/08 00:00:38;;;;;;;2.50;0.80;;;14.20;99.90;;;;;;5094389;28;20054;-73
2022/07/08 00:03:04;;;;;;;2.15;0.88;;;14.20;99.90;;;;;;5110808;28;20428;-74
2022/07/08 00:05:30;;;;;;;;;;;14.20;99.90;;;;;;5103286;28;20043;-74
2022/07/08 00:07:56;;;;;;;2.90;1.00;;;14.20;99.90;;;;;;5104377;28;19924;-73
2022/07/08 00:10:22;;;;;;;4.60;1.20;;;14.20;99.90;;;;;;5094204;28;20513;-73
2022/07/08 00:12:47;;;;;;;3.15;0.93;;;14.20;99.90;;;;;;5093632;28;20051;-74
2022/07/08 00:15:13;;;;;;;3.83;0.98;;;14.30;99.90;;;;;;5081937;28;20043;-74
2022/07/08 00:17:39;;;;;;;3.33;0.85;;;14.30;99.90;;;;;;5095514;28;20474;-74
2022/07/08 00:20:06;;;;;;;4.00;0.90;;;14.30;99.90;;;;;;5097504;28;20412;-73
2022/07/08 00:22:33;;;;;;;4.28;1.00;;;14.30;99.90;;;;;;5092055;28;20058;-73
2022/07/08 00:24:59;;;;;;;4.10;1.00;;;14.30;99.90;;;;;;5092168;28;20040;-73
2022/07/08 00:27:25;;;;;;;4.65;0.82;;;14.30;99.90;;;;;;5093143;28;20047;-74
2022/07/08 00:29:50;;;;;;;3.13;0.80;;;14.30;99.90;;;;;;5071313;28;20031;-73
2022/07/08 00:32:16;;;;;;;2.47;0.77;;;14.30;99.90;;;;;;5098468;28;20043;-73
2022/07/08 00:34:42;;;;;;;2.58;0.50;;;14.20;99.90;;;;;;5089880;28;20047;-74
2022/07/08 00:37:08;;;;;;;1.25;0.50;;;14.30;99.90;;;;;;5074243;28;20040;-73
2022/07/08 00:58:57;;;;;;;3.25;0.90;;;14.10;99.90;;;;;;5338165;22;20037;-75
2022/07/08 01:01:23;;;;;;;2.63;0.57;;;14.00;99.90;;;;;;5291047;22;20052;-74
2022/07/08 01:03:48;;;;;;;3.22;0.73;;;14.10;99.90;;;;;;5071730;28;20858;-74
2022/07/08 01:06:14;;;;;;;3.15;0.88;;;14.00;99.90;;;;;;5071247;28;20051;-74
2022/07/08 01:08:40;;;;;;;3.50;0.80;;;14.00;99.90;;;;;;5089458;28;20036;-74
2022/07/08 01:11:10;;;;;;;;;;;13.90;99.90;;;;;;5072146;28;20039;-74
2022/07/08 01:13:36;;;;;;;2.30;0.55;;;13.90;99.90;;;;;;5069749;28;19920;-74
2022/07/08 01:16:02;;;;;;;2.08;0.60;;;13.90;99.90;;;;;;5073793;28;20068;-74
2022/07/08 01:18:30;;;;;;;1.48;0.60;;;13.80;99.90;;;;;;5065881;28;20041;-74
2022/07/08 01:20:57;;;;;;;2.28;0.80;;;13.80;99.90;;;;;;5087735;28;20047;-74
2022/07/08 01:23:22;;;;;;;1.20;0.60;;;13.80;99.90;;;;;;5071676;28;20040;-74
2022/07/08 01:25:48;;;;;;;2.90;0.90;;;13.70;99.90;;;;;;5048314;28;20401;-74
2022/07/08 01:28:15;;;;;;;3.30;0.80;;;13.70;99.90;;;;;;5072737;28;20482;-74
2022/07/08 01:30:42;;;;;;;2.13;0.68;;;13.70;99.90;;;;;;5071118;28;20048;-74
2022/07/08 01:33:08;;;;;;;2.83;0.90;;;13.70;99.90;;;;;;5075085;28;20064;-74
2022/07/08 01:35:34;;;;;;;3.38;0.90;;;13.70;99.90;;;;;;5071116;28;20048;-74
2022/07/08 01:38:00;;;;;;;2.90;0.73;;;13.70;99.90;;;;;;5086137;28;20539;-74
2022/07/08 01:40:25;;;;;;;1.98;0.63;;;13.70;99.90;;;;;;5070800;28;20470;-74
2022/07/08 01:42:51;;;;;;;3.60;0.80;;;13.60;99.90;;;;;;5071910;28;20032;-74
2022/07/08 01:45:17;;;;;;;2.03;0.65;;;13.50;99.90;;;;;;5047147;28;20119;-74
2022/07/08 01:47:42;;;;;;;3.10;0.70;;;13.50;99.90;;;;;;5073228;28;20513;-74
2022/07/08 01:50:09;;;;;;;4.25;0.98;;;13.40;99.90;;;;;;5071463;28;20044;-74
2022/07/08 01:52:35;;;;;;;4.28;0.93;;;13.30;99.90;;;;;;5074442;28;20079;-74
2022/07/08 01:55:01;;;;;;;3.10;1.02;;;13.30;99.90;;;;;;5073393;28;20446;-74
2022/07/08 01:57:27;;;;;;;3.53;0.88;;;13.20;99.90;;;;;;5073464;28;20051;-74
2022/07/08 01:59:52;;;;;;;3.28;0.88;;;13.20;99.90;;;;;;5084363;28;20040;-74
2022/07/08 02:02:21;;;;;;;4.50;1.00;;;13.20;99.90;;;;;;5057123;28;20052;-74
2022/07/08 02:04:47;;;;;;;2.72;0.82;;;13.10;99.90;;;;;;5057320;28;20513;-73
2022/07/08 02:07:14;;;;;;;3.65;0.73;;;13.00;99.90;;;;;;5052664;28;20043;-73
2022/07/08 02:09:40;;;;;;;2.45;0.50;;;13.00;99.90;;;;;;5047982;28;20089;-74
2022/07/08 02:12:19;;;;;;;2.53;0.60;;;13.00;99.90;;;;;;5052168;28;20067;-74
2022/07/08 02:14:49;;;;;;;3.47;0.75;;;12.90;99.90;;;;;;5053193;28;20040;-74
2022/07/08 02:17:16;;;;;;;1.52;0.65;;;12.90;99.90;;;;;;5036798;28;20043;-74
2022/07/08 02:19:42;;;;;;;3.08;0.60;;;12.90;99.90;;;;;;5049534;28;20102;-74
2022/07/08 02:22:09;;;;;;;1.88;0.60;;;12.80;99.90;;;;;;5036324;28;20040;-74
2022/07/08 02:24:36;;;;;;;4.07;0.70;;;12.80;99.90;;;;;;5058770;28;20399;-74
2022/07/08 02:27:02;;;;;;;2.80;0.77;;;12.80;99.90;;;;;;5062878;28;20072;-73
2022/07/08 02:29:28;;;;;;;1.92;0.65;;;12.80;99.90;;;;;;5038000;28;20041;-73
2022/07/08 02:31:53;;;;;;;1.45;0.50;;;12.80;99.90;;;;;;5052458;28;20611;-73
2022/07/08 02:34:19;;;;;;;1.60;0.57;;;12.70;99.90;;;;;;5052661;28;20051;-74
2022/07/08 02:36:45;;;;;;;4.28;0.70;;;12.70;99.90;;;;;;5075537;28;20098;-74
2022/07/08 02:39:12;;;;;;;3.45;0.80;;;12.70;99.90;;;;;;5056637;28;20080;-74
2022/07/08 02:41:39;;;;;;;3.85;0.85;;;12.70;99.90;;;;;;5039144;28;20423;-73
2022/07/08 02:44:06;;;;;;;1.90;0.55;;;12.70;99.90;;;;;;5056612;28;20210;-73
2022/07/08 02:46:32;;;;;;;1.80;0.50;;;12.70;99.90;;;;;;5058730;28;20062;-74
2022/07/08 02:48:57;;;;;;;4.10;0.85;;;12.70;99.90;;;;;;5045261;28;20056;-74
2022/07/08 02:51:23;;;;;;;3.83;1.10;;;12.70;99.90;;;;;;5064160;28;20419;-74
2022/07/08 02:53:49;;;;;;;3.20;1.20;;;12.70;99.90;;;;;;5043450;28;20485;-74
2022/07/08 02:56:14;;;;;;;2.85;0.70;;;12.70;99.90;;;;;;5039177;28;20542;-74
2022/07/08 02:58:40;;;;;;;4.65;1.00;;;12.60;99.90;;;;;;5056530;28;20522;-74
2022/07/08 03:01:06;;;;;;;3.40;1.40;;;12.70;99.90;;;;;;5055097;28;20106;-74
2022/07/08 03:03:31;;;;;;;4.07;0.88;;;12.60;99.90;;;;;;5054028;28;20048;-74
2022/07/08 03:05:57;;;;;;;2.33;0.70;;;12.70;99.90;;;;;;5043561;28;20076;-74
2022/07/08 03:08:23;;;;;;;3.72;1.05;;;12.60;99.90;;;;;;5060108;28;20076;-74
2022/07/08 03:10:49;;;;;;;1.88;0.65;;;12.50;99.90;;;;;;5063206;28;20056;-74
2022/07/08 03:13:15;;;;;;;4.97;1.05;;;12.60;99.90;;;;;;5055778;28;20036;-74
2022/07/08 03:15:41;;;;;;;;;;;12.50;99.90;;;;;;5039079;28;20502;-74
2022/07/08 03:18:07;;;;;;;2.08;0.60;;;12.50;99.90;;;;;;5053804;28;19917;-74
2022/07/08 03:20:33;;;;;;;2.78;0.80;;;12.40;99.90;;;;;;5054253;28;20071;-74
2022/07/08 03:22:58;;;;;;;3.65;0.88;;;12.50;99.90;;;;;;5040343;28;20044;-74
2022/07/08 03:25:24;;;;;;;5.32;0.85;;;12.40;99.90;;;;;;5055672;28;20089;-73
2022/07/08 03:27:50;;;;;;;1.90;0.70;;;12.40;99.90;;;;;;5053019;28;20078;-73
2022/07/08 03:30:16;;;;;;;2.90;1.02;;;12.40;99.90;;;;;;5055020;28;20059;-74
2022/07/08 03:32:42;;;;;;;1.58;0.70;;;12.40;99.90;;;;;;5035091;28;20512;-73
2022/07/08 03:35:08;;;;;;;3.45;0.95;;;12.40;99.90;;;;;;5035976;28;20056;-73
2022/07/08 03:37:34;;;;;;;1.88;0.50;;;12.50;99.90;;;;;;5053920;28;20068;-73
2022/07/08 03:42:44;;;;;;;2.90;0.88;;;12.50;99.90;;;;;;5054571;28;20048;-74
2022/07/08 03:45:10;;;;;;;3.03;0.68;;;12.40;99.90;;;;;;5054462;28;20123;-73
2022/07/08 03:47:36;;;;;;;3.83;0.82;;;12.50;99.90;;;;;;5053892;28;20171;-73
2022/07/08 03:50:01;;;;;;;3.75;0.88;;;12.50;99.90;;;;;;5053515;28;20105;-73
2022/07/08 03:52:27;;;;;;;3.75;0.95;;;12.50;99.90;;;;;;5035850;28;20052;-74
2022/07/08 03:54:53;;;;;;;3.90;0.98;;;12.50;99.90;;;;;;5036892;28;20095;-73
2022/07/08 03:57:19;;;;;;;2.15;0.80;;;12.50;99.90;;;;;;5053214;28;20047;-74
2022/07/08 03:59:44;;;;;;;2.00;0.50;;;12.50;99.90;;;;;;5054771;28;20804;-73
2022/07/08 04:02:10;;;;;;;1.83;0.60;;;12.50;99.90;;;;;;5052309;28;20091;-73
2022/07/08 04:04:36;;;;;;;4.25;0.82;;;12.60;99.90;;;;;;5053466;28;20091;-73
2022/07/08 04:07:01;;;;;;;2.30;0.80;;;12.50;99.90;;;;;;5048767;28;20116;-73
2022/07/08 04:09:27;;;;;;;2.38;0.82;;;12.60;99.90;;;;;;5021405;28;20095;-73
2022/07/08 04:11:53;;;;;;;1.90;0.60;;;12.60;99.90;;;;;;5053791;28;20047;-73
2022/07/08 04:14:18;;;;;;;2.45;0.85;;;12.60;99.90;;;;;;5053156;28;20037;-74
2022/07/08 04:16:44;;;;;;;5.22;1.20;;;12.60;99.90;;;;;;5054075;28;20037;-73
2022/07/08 04:19:10;;;;;;;5.45;1.05;;;12.60;99.90;;;;;;5053645;28;20148;-73
2022/07/08 04:21:35;;;;;;;4.72;0.93;;;12.70;99.90;;;;;;5053877;28;20044;-74
2022/07/08 04:24:01;;;;;;;4.05;0.95;;;12.70;99.90;;;;;;5054208;28;20040;-74
2022/07/08 04:26:31;;;;;;;5.68;1.23;;;12.70;99.90;;;;;;5053332;28;20028;-73
2022/07/08 04:28:58;;;;;;;2.17;0.60;;;12.80;99.90;;;;;;5053752;28;20054;-73
2022/07/08 04:31:25;;;;;;;0.80;0.50;;;12.90;99.90;;;;;;5052786;28;20071;-74
2022/07/08 04:33:50;;;;;;;3.33;0.98;;;13.00;99.90;;;;;;5053433;28;20051;-73
2022/07/08 04:36:16;;;;;;;2.28;0.70;;;13.00;99.90;;;;;;5036495;28;20115;-74
2022/07/08 04:38:42;;;;;;;1.73;0.60;;;13.10;99.90;;;;;;5053672;28;20047;-74
2022/07/08 04:41:07;;;;;;;2.80;0.88;;;13.20;99.90;;;;;;5050858;28;20109;-74
2022/07/08 04:43:33;;;;;;;2.67;0.77;;;13.20;99.90;;;;;;5053297;28;20229;-73
2022/07/08 04:45:58;;;;;;;1.40;0.60;;;13.30;99.90;;;;;;5073551;28;20040;-73
2022/07/08 04:48:25;;;;;;;5.10;1.08;;;13.40;99.90;;;;;;5069477;28;20048;-73
2022/07/08 04:50:50;;;;;;;;;;;13.50;99.90;;;;;;5054152;28;20113;-74
2022/07/08 04:53:16;;;;;;;3.60;1.00;;;13.60;99.90;;;;;;5052417;28;20382;-74
2022/07/08 04:55:42;;;;;;;3.30;1.20;;;13.70;99.90;;;;;;5052417;28;20045;-74
2022/07/08 04:58:07;;;;;;;6.32;1.00;;;13.70;99.90;;;;;;5035477;28;20157;-74
2022/07/08 05:00:34;;;;;;;2.70;0.88;;;13.80;99.90;;;;;;5051301;28;20490;-72
2022/07/08 05:03:01;;;;;;;2.53;0.80;;;13.90;99.90;;;;;;5054809;28;20045;-73
2022/07/08 05:05:27;;;;;;;1.65;0.70;;;13.90;99.90;;;;;;5050876;28;20491;-73
2022/07/08 05:07:54;;;;;;;3.17;0.80;;;14.10;99.90;;;;;;5052829;28;20087;-72
2022/07/08 05:10:23;;;;;;;3.13;0.70;;;14.10;99.90;;;;;;5053036;28;20044;-72
2022/07/08 05:12:49;;;;;;;3.20;0.90;;;14.10;99.90;;;;;;5049683;28;20040;-72
2022/07/08 05:15:15;;;;;;;;;;;14.10;99.90;;;;;;5051897;28;20047;-72
2022/07/08 05:17:41;;;;;;;7.20;1.30;;;14.10;99.90;;;;;;5052584;28;19920;-73
2022/07/08 05:20:09;;;;;;;4.75;1.00;;;14.10;99.90;;;;;;5060284;28;20059;-73
2022/07/08 05:22:36;;;;;;;4.38;1.05;;;14.10;99.90;;;;;;5034518;28;20375;-73
2022/07/08 05:25:03;;;;;;;5.10;1.25;;;14.10;99.90;;;;;;5051137;28;20036;-72
2022/07/08 05:27:29;;;;;;;5.30;1.05;;;14.10;99.90;;;;;;5052956;28;20044;-73
2022/07/08 05:29:55;;;;;;;12.82;1.77;;;14.30;99.90;;;;;;5049561;28;20516;-72
2022/07/08 05:32:21;;;;;;;5.75;1.55;;;14.30;99.90;;;;;;5051288;28;20032;-73
2022/07/08 05:34:46;;;;;;;7.28;1.50;;;14.30;99.90;;;;;;5050830;28;20051;-73
2022/07/08 05:37:12;;;;;;;3.25;1.10;;;14.30;99.90;;;;;;5049083;28;20044;-74
2022/07/08 05:39:42;;;;;;;7.25;1.80;;;14.50;99.90;;;;;;5049098;28;20040;-74
2022/07/08 05:42:09;;;;;;;7.80;1.50;;;14.60;99.90;;;;;;5034629;28;20123;-74
2022/07/08 05:44:36;;;;;;;6.53;1.48;;;14.70;99.90;;;;;;5048161;28;20048;-74
2022/07/08 05:47:03;;;;;;;4.45;0.90;;;14.80;99.90;;;;;;5050537;28;20040;-74
2022/07/08 05:49:28;;;;;;;7.07;1.50;;;14.90;99.90;;;;;;5052537;28;20215;-74
2022/07/08 05:51:54;;;;;;;2.90;1.05;;;15.00;99.90;;;;;;5035352;28;20402;-74
2022/07/08 05:54:20;;;;;;;4.68;1.35;;;15.10;99.90;;;;;;5047888;28;20500;-74
2022/07/08 05:56:46;;;;;;;5.10;1.27;;;15.20;99.90;;;;;;5051269;28;20387;-74
2022/07/08 05:59:11;;;;;;;4.40;1.27;;;15.30;99.90;;;;;;5052088;28;20035;-74
2022/07/08 06:01:37;;;;;;;6.93;1.20;;;15.30;99.90;;;;;;5043988;28;20049;-74
2022/07/08 06:04:03;;;;;;;3.45;1.17;;;15.40;99.90;;;;;;5051431;28;20462;-74
2022/07/08 06:06:28;;;;;;;3.38;1.13;;;15.50;99.90;;;;;;5049908;28;20105;-74
2022/07/08 06:08:54;;;;;;;7.50;1.52;;;15.60;99.90;;;;;;5054513;28;20150;-74
2022/07/08 06:11:20;;;;;;;4.00;1.02;;;15.60;99.90;;;;;;5049495;28;20068;-74
2022/07/08 06:13:46;;;;;;;6.97;1.67;;;15.70;99.90;;;;;;5054970;28;20045;-74
2022/07/08 06:16:12;;;;;;;5.57;1.60;;;15.70;99.90;;;;;;5052041;28;20542;-76
2022/07/08 06:18:37;;;;;;;5.00;1.20;;;15.80;99.90;;;;;;5054866;28;20052;-76
2022/07/08 06:21:03;;;;;;;7.15;1.75;;;15.90;99.90;;;;;;5053280;28;20047;-76
2022/07/08 06:23:29;;;;;;;3.72;0.90;;;15.90;99.90;;;;;;5053564;28;20048;-75
2022/07/08 06:25:55;;;;;;;6.22;1.50;;;16.00;99.90;;;;;;5053275;28;20101;-76
2022/07/08 06:28:20;;;;;;;3.75;1.10;;;16.00;99.90;;;;;;5051325;28;20060;-76
2022/07/08 06:30:46;;;;;;;6.03;1.35;;;16.10;99.90;;;;;;5036451;28;20098;-77
2022/07/08 06:33:12;;;;;;;3.78;1.02;;;16.10;99.90;;;;;;5054106;28;20093;-77
2022/07/08 06:35:38;;;;;;;6.68;1.30;;;16.20;99.90;;;;;;5053408;28;20041;-76
2022/07/08 06:38:03;;;;;;;4.25;1.63;;;16.20;99.90;;;;;;5056030;28;20207;-77
2022/07/08 06:40:29;;;;;;;2.47;1.00;;;16.30;99.90;;;;;;5054545;28;20498;-77
2022/07/08 06:42:55;;;;;;;5.85;1.85;;;16.30;99.90;;;;;;5053946;28;20538;-76
2022/07/08 06:45:20;;;;;;;8.27;1.60;;;16.40;99.90;;;;;;5043025;28;20044;-77
2022/07/08 06:47:46;;;;;;;8.85;1.83;;;16.40;99.90;;;;;;5060598;28;20041;-76
2022/07/08 06:50:12;;;;;;;4.63;1.58;;;16.40;99.90;;;;;;5054497;28;20428;-76
2022/07/08 06:52:38;;;;;;;3.70;1.10;;;16.50;99.90;;;;;;5052820;28;20063;-77
2022/07/08 06:55:04;;;;;;;;;;;16.70;99.90;;;;;;5061794;28;20056;-77
2022/07/08 06:57:29;;;;;;;6.22;1.30;;;16.60;99.90;;;;;;5047323;28;19916;-76
2022/07/08 06:59:56;;;;;;;5.43;1.30;;;16.70;99.90;;;;;;5037275;28;20040;-76
2022/07/08 07:02:21;;;;;;;7.00;1.70;;;16.70;99.90;;;;;;5014629;28;1095545;-77
2022/07/08 07:04:47;;;;;;;6.95;1.75;;;16.80;99.90;;;;;;5054618;28;20453;-76
2022/07/08 07:07:13;;;;;;;5.25;1.08;;;16.80;99.90;;;;;;5050187;28;20076;-77
2022/07/08 07:09:39;;;;;;;4.07;1.20;;;17.00;99.90;;;;;;5053267;28;20040;-77
2022/07/08 07:12:09;;;;;;;4.40;1.20;;;17.20;99.90;;;;;;5054476;28;20064;-77
2022/07/08 07:14:35;;;;;;;3.83;1.00;;;17.20;99.90;;;;;;5052270;28;20496;-77
2022/07/08 07:17:01;;;;;;;3.97;0.77;;;17.30;99.90;;;;;;5054423;28;20475;-77
2022/07/08 07:19:27;;;;;;;5.45;1.10;;;17.40;99.90;;;;;;5054141;28;20047;-77
2022/07/08 07:21:54;;;;;;;3.13;0.98;;;17.30;99.90;;;;;;5055080;28;20502;-76
2022/07/08 07:24:20;;;;;;;6.30;1.60;;;17.40;99.90;;;;;;5054825;28;20047;-76
2022/07/08 07:26:47;;;;;;;6.22;1.15;;;17.50;99.90;;;;;;5047378;28;20087;-76
2022/07/08 07:29:13;;;;;;;7.32;1.23;;;17.50;99.90;;;;;;5046186;28;20058;-76
2022/07/08 07:31:38;;;;;;;;;;;17.60;99.90;;;;;;5053173;28;20036;-76
2022/07/08 07:34:04;;;;;;;4.63;1.40;;;17.50;99.90;;;;;;5052219;28;19920;-77
2022/07/08 07:36:30;;;;;;;4.97;1.10;;;17.60;99.90;;;;;;5037748;28;20041;-76
2022/07/08 07:38:56;;;;;;;3.42;1.02;;;17.60;99.90;;;;;;5054116;28;20075;-76
2022/07/08 07:41:22;;;;;;;;;;;17.70;99.90;;;;;;5048389;28;20036;-77
2022/07/08 07:43:48;;;;;;;3.17;0.93;;;17.70;99.90;;;;;;5054029;28;19920;-77
2022/07/08 07:46:15;;;;;;;3.58;1.23;;;17.60;99.90;;;;;;5029206;28;20048;-76
2022/07/08 07:48:41;;;;;;;3.30;1.10;;;17.60;99.90;;;;;;5053304;28;20087;-77
2022/07/08 07:51:06;;;;;;;;;;;17.70;99.90;;;;;;5070746;28;20155;-77
2022/07/08 07:53:32;;;;;;;4.50;1.33;;;17.90;99.90;;;;;;5052940;28;20015;-77
2022/07/08 07:55:58;;;;;;;;;;;17.80;99.90;;;;;;5053490;28;20052;-77
2022/07/08 07:58:24;;;;;;;4.25;1.20;;;17.80;99.90;;;;;;5052392;28;19969;-77
2022/07/08 08:00:50;;;;;;;3.88;1.23;;;17.80;99.90;;;;;;5049193;28;20053;-76
2022/07/08 08:03:16;;;;;;;;;;;17.70;99.90;;;;;;5050365;28;20041;-77
2022/07/08 08:05:42;;;;;;;2.47;0.90;;;17.70;99.90;;;;;;5050460;28;19955;-77
2022/07/08 08:08:09;;;;;;;2.53;0.90;;;17.80;99.90;;;;;;5048693;28;20116;-77
2022/07/08 08:10:35;;;;;;;4.63;1.20;;;17.80;99.90;;;;;;5049179;28;20121;-77
2022/07/08 08:13:00;;;;;;;;;;;17.90;99.90;;;;;;5047924;28;20037;-77
2022/07/08 08:15:29;;;;;;;4.72;1.15;;;17.80;99.90;;;;;;5030195;28;19917;-76
2022/07/08 08:17:56;;;;;;;2.95;1.10;;;17.90;99.90;;;;;;5050566;28;20047;-76
2022/07/08 08:20:28;;;;;;;2.55;0.95;;;17.90;99.90;;;;;;5050455;28;20048;-77
2022/07/08 08:22:54;;;;;;;5.28;1.02;;;18.00;99.90;;;;;;5049674;28;20045;-76
2022/07/08 08:25:21;;;;;;;5.50;1.20;;;18.00;99.90;;;;;;5051034;28;20128;-77
2022/07/08 08:27:47;;;;;;;5.68;1.23;;;18.00;99.90;;;;;;5049608;28;20049;-76
2022/07/08 08:30:15;;;;;;;3.17;1.13;;;18.00;99.90;;;;;;5046588;28;20597;-76
2022/07/08 08:32:41;;;;;;;3.90;0.98;;;18.00;99.90;;;;;;5048376;28;20399;-76
2022/07/08 08:35:07;;;;;;;;;;;18.00;99.90;;;;;;5050458;28;20033;-76
2022/07/08 08:37:32;;;;;;;4.63;1.23;;;18.10;99.90;;;;;;5047494;28;19994;-76
2022/07/08 08:40:06;;;;;;;;;;;18.10;99.90;;;;;;5049859;28;20041;-77
2022/07/08 08:42:32;;;;;;;3.72;1.30;;;18.10;99.90;;;;;;5033209;28;20003;-76
2022/07/08 08:44:59;;;;;;;5.10;1.30;;;18.10;99.90;;;;;;5050634;28;20045;-76
2022/07/08 08:47:30;;;;;;;4.85;1.30;;;18.10;99.90;;;;;;5048129;28;20055;-76
2022/07/08 08:49:57;;;;;;;4.28;1.27;;;18.10;99.90;;;;;;5031671;28;20053;-76
2022/07/08 08:52:23;;;;;;;3.13;1.20;;;18.10;99.90;;;;;;5047385;28;20053;-76
2022/07/08 08:54:51;;;;;;;5.20;1.30;;;18.10;99.90;;;;;;5029234;28;20098;-76
2022/07/08 08:57:20;;;;;;;5.13;1.30;;;18.10;99.90;;;;;;5045369;28;20045;-76
2022/07/08 08:59:46;;;;;;;3.60;1.30;;;18.10;99.90;;;;;;5036711;28;20579;-76
2022/07/08 09:02:12;;;;;;;3.22;1.30;;;18.20;99.90;;;;;;5045719;28;20059;-76
2022/07/08 09:04:39;;;;;;;7.13;1.50;;;18.30;99.90;;;;;;5043715;28;20053;-76
2022/07/08 09:07:05;;;;;;;4.25;1.30;;;18.30;99.90;;;;;;5026157;28;20076;-76
2022/07/08 09:09:31;;;;;;;4.05;1.00;;;18.50;99.90;;;;;;5048734;28;20075;-76
2022/07/08 09:11:56;;;;;;;;;;;18.60;99.90;;;;;;5045750;28;20534;-76
2022/07/08 09:14:23;;;;;;;4.05;1.45;;;18.80;99.90;;;;;;5048242;28;19925;-76
2022/07/08 09:17:09;;;;;;;2.70;0.90;;;18.80;99.90;;;;;;5046655;28;20087;-76
2022/07/08 09:19:35;;;;;;;2.47;0.80;;;19.00;99.90;;;;;;5048018;28;20037;-76
2022/07/08 09:22:00;;;;;;;;;;;19.00;99.90;;;;;;5007341;28;20118;-76
2022/07/08 09:24:27;;;;;;;4.35;1.23;;;19.10;99.90;;;;;;5048005;28;19920;-76
2022/07/08 09:26:56;;;;;;;3.72;1.20;;;19.00;99.90;;;;;;5032667;28;20036;-75
2022/07/08 09:29:23;;;;;;;3.30;1.17;;;19.00;99.90;;;;;;5054078;28;20045;-76
2022/07/08 09:31:49;;;;;;;3.78;1.20;;;19.00;99.90;;;;;;5047109;28;20094;-76
2022/07/08 09:34:20;;;;;;;6.88;1.40;;;19.00;99.90;;;;;;5048085;28;20348;-75
2022/07/08 09:36:47;;;;;;;3.58;1.20;;;18.80;99.90;;;;;;5031786;28;20532;-76
2022/07/08 09:39:31;;;;;;;4.25;1.20;;;18.90;99.90;;;;;;5041473;28;20051;-76
2022/07/08 09:41:56;;;;;;;2.17;0.98;;;18.90;99.90;;;;;;5049319;28;20484;-76
2022/07/08 09:44:25;;;;;;;;;;;19.00;99.90;;;;;;5047171;28;20041;-76
2022/07/08 09:46:50;;;;;;;3.00;1.10;;;19.10;99.90;;;;;;5049205;28;20312;-76
2022/07/08 09:49:32;;;;;;;;;;;19.10;99.90;;;;;;5048378;28;20041;-76
2022/07/08 09:51:59;;;;;;;4.85;1.40;;;19.20;99.90;;;;;;5045554;28;19924;-76
2022/07/08 09:54:26;;;;;;;3.47;1.05;;;19.10;99.90;;;;;;5047418;28;20472;-76
2022/07/08 09:57:03;;;;;;;3.90;1.17;;;19.10;99.90;;;;;;5047419;28;20043;-74
2022/07/08 09:59:30;;;;;;;1.75;0.80;;;19.10;99.90;;;;;;5041787;28;20045;-76
2022/07/08 10:01:57;;;;;;;2.10;0.90;;;19.30;99.90;;;;;;5045911;28;20518;-76
2022/07/08 10:04:24;;;;;;;6.50;1.20;;;19.40;99.90;;;;;;5037675;28;20391;-76
2022/07/08 10:06:50;;;;;;;2.88;0.98;;;19.30;99.90;;;;;;5044652;28;20044;-76
2022/07/08 10:09:16;;;;;;;4.40;1.02;;;19.50;99.90;;;;;;5031191;28;20123;-77
2022/07/08 10:11:42;;;;;;;;;;;19.70;99.90;;;;;;5028977;28;20140;-77
2022/07/08 10:14:08;;;;;;;1.60;0.90;;;19.70;99.90;;;;;;5046766;28;19947;-77
2022/07/08 10:16:34;;;;;;;;;;;19.80;99.90;;;;;;5051097;28;20040;-77
2022/07/08 10:19:03;;;;;;;2.90;1.00;;;20.00;99.90;;;;;;5050177;28;19917;-75
2022/07/08 10:21:30;;;;;;;2.25;1.05;;;20.00;99.90;;;;;;5040026;28;20121;-74
2022/07/08 10:23:56;;;;;;;1.98;0.70;;;20.00;99.90;;;;;;5044869;28;20048;-76
2022/07/08 10:26:30;;;;;;;;;;;20.00;99.90;;;;;;5027308;28;20046;-76
2022/07/08 10:29:05;;;;;;;2.78;0.95;;;19.80;99.90;;;;;;5035743;28;19917;-75
2022/07/08 10:31:46;;;;;;;7.00;1.45;;;19.90;99.90;;;;;;5047941;28;20077;-75
2022/07/08 10:34:13;;;;;;;4.53;1.20;;;19.80;99.90;;;;;;5035720;28;20608;-75
2022/07/08 10:36:53;;;;;;;2.75;1.00;;;19.90;99.90;;;;;;5036293;28;20038;-75
2022/07/08 10:39:36;;;;;;;2.35;0.82;;;20.00;99.90;;;;;;5045918;28;20045;-76
2022/07/08 10:42:04;;;;;;;4.35;1.40;;;20.10;99.90;;;;;;5045924;28;20160;-76
2022/07/08 10:44:45;;;;;;;3.67;1.08;;;20.00;99.90;;;;;;5045385;28;20412;-77
2022/07/08 10:47:11;;;;;;;2.05;0.70;;;20.20;99.90;;;;;;5044417;28;20045;-77
2022/07/08 10:49:45;;;;;;;3.45;0.80;;;20.40;99.90;;;;;;5044714;28;20051;-77
2022/07/08 10:52:15;;;;;;;2.10;0.90;;;20.50;99.90;;;;;;5048472;28;20487;-77
2022/07/08 10:54:42;;;;;;;3.83;1.10;;;20.50;99.90;;;;;;5048224;28;20082;-76
2022/07/08 10:57:08;;;;;;;2.28;0.98;;;20.50;99.90;;;;;;5050736;28;20037;-76
2022/07/08 10:59:36;;;;;;;3.17;0.90;;;20.30;99.90;;;;;;5050904;28;20044;-76
2022/07/08 11:02:08;;;;;;;3.42;1.10;;;20.40;99.90;;;;;;5067028;28;20064;-76
2022/07/08 11:04:33;;;;;;;5.95;1.55;;;20.40;99.90;;;;;;5051765;28;20067;-75
2022/07/08 11:07:14;;;;;;;5.22;1.30;;;20.50;99.90;;;;;;5051335;28;20045;-75
2022/07/08 11:09:42;;;;;;;3.03;1.27;;;20.70;99.90;;;;;;5051340;28;20459;-75
2022/07/08 11:12:16;;;;;;;3.92;0.98;;;20.80;99.90;;;;;;5050537;28;20425;-75
2022/07/08 11:14:46;;;;;;;2.78;0.95;;;21.20;99.90;;;;;;5050399;28;20044;-75
2022/07/08 11:17:26;;;;;;;3.42;1.38;;;21.20;99.90;;;;;;5051108;28;20049;-75
2022/07/08 11:19:53;;;;;;;2.95;1.20;;;21.20;99.90;;;;;;5046839;28;20036;-75
2022/07/08 11:22:21;;;;;;;5.20;1.40;;;21.50;99.90;;;;;;5050037;28;20471;-74
2022/07/08 11:24:47;;;;;;;4.97;1.80;;;21.60;99.90;;;;;;5050959;28;20072;-74
2022/07/08 11:27:14;;;;;;;4.95;1.60;;;21.30;99.90;;;;;;5033237;28;20084;-75
2022/07/08 11:29:48;;;;;;;3.30;1.20;;;21.30;99.90;;;;;;5050191;28;20369;-75
2022/07/08 11:32:16;;;;;;;3.42;1.25;;;21.70;99.90;;;;;;5050222;28;20048;-75
2022/07/08 11:34:42;;;;;;;3.67;1.20;;;21.60;99.90;;;;;;5050704;28;20041;-75
2022/07/08 11:37:08;;;;;;;2.25;0.98;;;22.00;99.90;;;;;;5033827;28;20152;-75
2022/07/08 11:39:34;;;;;;;4.00;1.10;;;22.00;99.90;;;;;;5050492;28;20055;-75
2022/07/08 11:42:00;;;;;;;4.43;1.20;;;22.30;99.90;;;;;;5050326;28;20059;-75
2022/07/08 11:44:27;;;;;;;3.50;1.50;;;22.40;99.90;;;;;;5050511;28;20048;-75
2022/07/08 11:46:54;;;;;;;3.67;1.60;;;22.00;99.90;;;;;;5049927;28;20480;-75
2022/07/08 11:49:21;;;;;;;3.55;1.10;;;21.80;99.90;;;;;;5048319;28;20049;-75
2022/07/08 11:51:47;;;;;;;4.72;1.48;;;21.70;99.90;;;;;;5050678;28;20037;-75
2022/07/08 11:54:14;;;;;;;3.55;1.30;;;21.90;99.90;;;;;;5064274;28;20455;-74
2022/07/08 11:56:40;;;;;;;3.25;1.40;;;21.90;99.90;;;;;;5046433;28;20075;-75
2022/07/08 11:59:06;;;;;;;3.00;1.20;;;21.70;99.90;;;;;;5045101;28;20116;-73
2022/07/08 12:01:33;;;;;;;2.22;0.90;;;21.70;99.90;;;;;;5056759;28;20184;-73
2022/07/08 12:03:59;;;;;;;4.50;1.30;;;21.70;99.90;;;;;;5058725;28;20112;-73
2022/07/08 12:06:28;;;;;;;2.97;1.13;;;21.50;99.90;;;;;;5054595;28;20041;-73
2022/07/08 12:08:54;;;;;;;4.40;1.80;;;21.50;99.90;;;;;;5055025;28;20117;-72
2022/07/08 12:11:21;;;;;;;3.03;1.23;;;21.20;99.90;;;;;;5061548;28;20120;-73
2022/07/08 12:13:49;;;;;;;2.65;1.20;;;21.40;99.90;;;;;;5052292;28;20048;-73
2022/07/08 12:16:43;;;;;;;4.60;1.58;;;21.70;99.90;;;;;;5052126;28;20036;-73
2022/07/08 12:19:29;;;;;;;4.53;1.30;;;21.80;99.90;;;;;;5051863;28;20044;-73
2022/07/08 12:21:56;;;;;;;3.80;1.00;;;21.80;99.90;;;;;;5057470;28;20119;-73
2022/07/08 12:24:31;;;;;;;4.25;1.20;;;22.10;99.90;;;;;;5049145;28;20075;-73
2022/07/08 12:26:59;;;;;;;2.70;1.25;;;22.30;99.90;;;;;;5060249;28;20139;-74
2022/07/08 12:29:32;;;;;;;4.47;1.55;;;22.40;99.90;;;;;;5062740;28;20058;-74
2022/07/08 12:31:58;;;;;;;4.35;1.30;;;22.30;99.90;;;;;;5049544;28;20032;-74
2022/07/08 12:34:25;;;;;;;2.50;1.30;;;22.40;99.90;;;;;;5053610;28;20147;-74
2022/07/08 12:36:52;;;;;;;3.22;1.23;;;22.50;99.90;;;;;;5050072;28;20083;-74
2022/07/08 12:39:27;;;;;;;4.25;1.20;;;22.40;99.90;;;;;;5053655;28;20040;-74
2022/07/08 12:42:01;;;;;;;3.60;1.10;;;22.30;99.90;;;;;;5051936;28;20443;-74
2022/07/08 12:44:31;;;;;;;2.33;1.10;;;22.30;99.90;;;;;;5049996;28;20155;-74
2022/07/08 12:46:57;;;;;;;5.90;2.17;;;22.30;99.90;;;;;;5054277;28;20131;-73
2022/07/08 12:49:28;;;;;;;5.28;1.50;;;22.30;99.90;;;;;;5051757;28;20191;-73
2022/07/08 12:51:54;;;;;;;2.80;1.13;;;22.20;99.90;;;;;;5051358;28;20040;-73
2022/07/08 12:54:24;;;;;;;4.90;1.50;;;22.10;99.90;;;;;;5051490;28;20032;-72
2022/07/08 12:56:51;;;;;;;5.63;1.63;;;21.90;99.90;;;;;;5035859;28;20067;-72
2022/07/08 12:59:17;;;;;;;7.13;2.00;;;21.70;99.90;;;;;;5052252;28;20042;-73
2022/07/08 13:01:43;;;;;;;5.30;1.50;;;21.40;99.90;;;;;;5051246;28;20135;-72
2022/07/08 13:04:09;;;;;;;3.65;1.48;;;21.70;99.90;;;;;;5034056;28;20080;-73
2022/07/08 13:06:35;;;;;;;4.20;1.30;;;21.70;99.90;;;;;;5051707;28;20041;-74
2022/07/08 13:09:01;;;;;;;4.20;1.58;;;21.70;99.90;;;;;;5051817;28;20036;-73
2022/07/08 13:11:26;;;;;;;6.32;1.70;;;21.60;99.90;;;;;;5036120;28;21595;-72
2022/07/08 13:13:52;;;;;;;4.43;1.50;;;21.60;99.90;;;;;;5047801;28;20080;-71